createdAt,value
2022-10-09T00:01:22.320Z,94818.22
2022-10-09T00:03:51.938Z,94828.16
2022-10-09T00:06:21.831Z,94816.84
2022-10-09T00:08:49.991Z,94821.41
2022-10-09T00:11:22.111Z,94813.34
2022-10-09T00:13:50.742Z,94809.13
2022-10-09T00:16:20.069Z,94803.09
2022-10-09T00:18:48.751Z,94807.22
2022-10-09T00:21:21.215Z,94810.59
2022-10-09T00:23:50.257Z,94804.31
2022-10-09T00:26:20.172Z,94799.91
2022-10-09T00:28:48.983Z,94796.38
2022-10-09T00:31:17.358Z,94794.63
2022-10-09T00:33:46.095Z,94794.97
2022-10-09T00:36:15.309Z,94791.38
2022-10-09T00:38:43.417Z,94786.69
2022-10-09T00:41:15.344Z,94788.47
2022-10-09T00:43:47.510Z,94779.34
2022-10-09T00:46:27.305Z,94779.06
2022-10-09T00:49:05.090Z,94772.13
2022-10-09T00:51:35.200Z,94768.53
2022-10-09T00:54:06.080Z,94768.53
2022-10-09T00:56:35.520Z,94764.47
2022-10-09T00:59:06.254Z,94765.75
2022-10-09T01:01:34.259Z,94763.94
2022-10-09T01:04:02.226Z,94766.72
2022-10-09T01:06:45.124Z,94759.09
2022-10-09T01:09:15.874Z,94753.78
2022-10-09T01:11:51.386Z,94764.50
2022-10-09T01:14:27.175Z,94759.72
2022-10-09T01:17:00.521Z,94755.78
2022-10-09T01:19:45.769Z,94755.97
2022-10-09T01:22:27.997Z,94759.38
2022-10-09T01:25:02.753Z,94756.81
2022-10-09T01:27:34.081Z,94769.28
2022-10-09T01:30:04.709Z,94766.25
2022-10-09T01:32:34.910Z,94764.28
2022-10-09T01:35:03.506Z,94757.31
2022-10-09T01:37:32.839Z,94754.41
2022-10-09T01:40:02.093Z,94756.84
2022-10-09T01:42:32.623Z,94763.47
2022-10-09T01:45:00.589Z,94759.59
2022-10-09T01:47:29.000Z,94748.91
2022-10-09T01:50:03.025Z,94761.22
2022-10-09T01:52:42.758Z,94757.66
2022-10-09T01:55:33.484Z,94764.00
2022-10-09T01:58:10.181Z,94761.75
2022-10-09T02:00:43.325Z,94753.94
2022-10-09T02:03:14.549Z,94757.38
2022-10-09T02:05:45.215Z,94762.41
2022-10-09T02:08:18.458Z,94760.47
2022-10-09T02:10:47.875Z,94768.25
2022-10-09T02:13:17.352Z,94761.75
2022-10-09T02:15:49.592Z,94770.22
2022-10-09T02:18:26.912Z,94770.84
2022-10-09T02:21:01.068Z,94770.56
2022-10-09T02:23:30.056Z,94780.09
2022-10-09T02:25:58.668Z,94776.69
2022-10-09T02:28:28.129Z,94779.81
2022-10-09T02:31:03.259Z,94774.75
2022-10-09T02:33:35.007Z,94780.94
2022-10-09T02:36:03.617Z,94777.34
2022-10-09T02:38:31.630Z,94781.22
2022-10-09T02:41:00.580Z,94781.91
2022-10-09T02:43:30.573Z,94780.25
2022-10-09T02:45:58.525Z,94765.66
2022-10-09T02:48:26.640Z,94777.00
2022-10-09T02:50:54.539Z,94778.81
2022-10-09T02:53:22.417Z,94774.91
2022-10-09T02:55:50.288Z,94774.25
2022-10-09T02:58:18.291Z,94786.44
2022-10-09T03:00:50.842Z,94789.69
2022-10-09T03:03:19.229Z,94785.44
2022-10-09T03:05:47.714Z,94775.72
2022-10-09T03:08:16.152Z,94787.72
2022-10-09T03:10:43.994Z,94789.69
2022-10-09T03:13:11.856Z,94797.31
2022-10-09T03:15:40.024Z,94795.69
2022-10-09T03:18:09.404Z,94786.75
2022-10-09T03:20:37.273Z,94802.34
2022-10-09T03:23:05.381Z,94802.66
2022-10-09T03:25:33.278Z,94800.25
2022-10-09T03:28:01.172Z,94807.53
2022-10-09T03:30:29.149Z,94803.94
2022-10-09T03:32:57.251Z,94796.16
2022-10-09T03:35:26.612Z,94794.00
2022-10-09T03:37:54.545Z,94805.69
2022-10-09T03:40:22.434Z,94798.69
2022-10-09T03:42:50.638Z,94798.19
2022-10-09T03:45:18.896Z,94794.09
2022-10-09T03:47:47.053Z,94804.19
2022-10-09T03:50:14.967Z,94793.94
2022-10-09T03:52:44.218Z,94800.56
2022-10-09T03:55:12.100Z,94794.09
2022-10-09T03:57:40.122Z,94793.13
2022-10-09T04:00:09.772Z,94784.69
2022-10-09T04:02:37.882Z,94796.06
2022-10-09T04:05:06.828Z,94800.91
2022-10-09T04:07:34.738Z,94796.97
2022-10-09T04:10:04.984Z,94797.66
2022-10-09T04:12:32.932Z,94797.97
2022-10-09T04:15:00.850Z,94803.44
2022-10-09T04:17:28.862Z,94786.81
2022-10-09T04:19:56.748Z,94806.94
2022-10-09T04:22:24.764Z,94804.41
2022-10-09T04:24:52.648Z,94803.72
2022-10-09T04:27:21.929Z,94805.19
2022-10-09T04:29:49.847Z,94812.44
2022-10-09T04:32:17.754Z,94814.22
2022-10-09T04:34:45.637Z,94809.53
2022-10-09T04:37:13.781Z,94811.31
2022-10-09T04:39:41.717Z,94815.72
2022-10-09T04:42:09.653Z,94816.53
2022-10-09T04:44:39.010Z,94818.00
2022-10-09T04:47:11.100Z,94817.81
2022-10-09T04:49:39.838Z,94822.34
2022-10-09T04:52:07.888Z,94821.50
2022-10-09T04:54:35.754Z,94827.03
2022-10-09T04:57:03.763Z,94824.28
2022-10-09T04:59:31.825Z,94823.78
2022-10-09T05:02:01.334Z,94819.56
2022-10-09T05:04:29.365Z,94828.00
2022-10-09T05:06:57.242Z,94829.47
2022-10-09T05:09:25.137Z,94829.00
2022-10-09T05:11:53.084Z,94833.19
2022-10-09T05:14:20.997Z,94831.78
2022-10-09T05:17:12.567Z,94839.06
2022-10-09T05:19:41.572Z,94837.78
2022-10-09T05:22:09.538Z,94840.97
2022-10-09T05:24:37.418Z,94841.25
2022-10-09T05:27:06.021Z,94841.63
2022-10-09T05:29:34.166Z,94841.91
2022-10-09T05:32:02.219Z,94840.94
2022-10-09T05:34:30.271Z,94849.09
2022-10-09T05:36:59.624Z,94842.66
2022-10-09T05:39:27.555Z,94843.97
2022-10-09T05:41:55.569Z,94844.84
2022-10-09T05:44:23.677Z,94849.28
2022-10-09T05:46:51.695Z,94849.28
2022-10-09T05:49:19.558Z,94853.22
2022-10-09T05:51:47.553Z,94862.34
2022-10-09T05:54:19.386Z,94863.31
2022-10-09T05:56:47.486Z,94871.91
2022-10-09T05:59:19.506Z,94869.47
2022-10-09T06:01:50.134Z,94881.50
2022-10-09T06:04:20.288Z,94892.88
2022-10-09T06:06:49.010Z,94895.16
2022-10-09T06:09:19.890Z,94901.00
2022-10-09T06:11:47.759Z,94901.03
2022-10-09T06:14:15.737Z,94898.41
2022-10-09T06:16:46.247Z,94893.53
2022-10-09T06:19:15.847Z,94901.16
2022-10-09T06:21:44.707Z,94905.06
2022-10-09T06:24:24.301Z,94910.13
2022-10-09T06:26:55.116Z,94906.56
2022-10-09T06:29:23.262Z,94895.50
2022-10-09T06:31:51.276Z,94910.13
2022-10-09T06:34:19.299Z,94918.25
2022-10-09T06:36:47.268Z,94922.97
2022-10-09T06:39:15.148Z,94925.06
2022-10-09T06:41:44.485Z,94926.84
2022-10-09T06:44:16.549Z,94934.44
2022-10-09T06:46:46.532Z,94928.41
2022-10-09T06:49:14.472Z,94945.63
2022-10-09T06:51:42.371Z,94940.56
2022-10-09T06:54:13.119Z,94938.75
2022-10-09T06:56:41.244Z,94941.66
2022-10-09T06:59:11.844Z,94935.28
2022-10-09T07:01:39.999Z,94935.72
2022-10-09T07:04:11.037Z,94941.53
2022-10-09T07:06:42.063Z,94946.38
2022-10-09T07:09:12.090Z,94929.59
2022-10-09T07:11:43.177Z,94948.75
2022-10-09T07:14:15.843Z,94950.31
2022-10-09T07:16:45.971Z,94956.34
2022-10-09T07:19:15.814Z,94958.69
2022-10-09T07:21:45.833Z,94951.81
2022-10-09T07:24:14.262Z,94955.97
2022-10-09T07:26:43.741Z,94960.00
2022-10-09T07:29:15.726Z,94975.13
2022-10-09T07:31:43.955Z,94981.53
2022-10-09T07:34:11.892Z,94979.06
2022-10-09T07:36:39.874Z,94981.41
2022-10-09T07:39:07.912Z,94984.13
2022-10-09T07:41:36.305Z,94989.34
2022-10-09T07:44:04.573Z,94989.03
2022-10-09T07:46:34.390Z,94986.13
2022-10-09T07:49:02.599Z,94996.97
2022-10-09T07:51:31.985Z,94993.09
2022-10-09T07:54:02.076Z,94994.47
2022-10-09T07:56:31.801Z,95000.88
2022-10-09T07:59:01.767Z,94992.41
2022-10-09T08:01:31.644Z,94993.41
2022-10-09T08:04:02.044Z,95000.13
2022-10-09T08:06:31.022Z,94995.75
2022-10-09T08:09:01.790Z,94990.94
2022-10-09T08:11:31.132Z,94990.06
2022-10-09T08:13:59.631Z,94991.56
2022-10-09T08:16:28.604Z,94998.88
2022-10-09T08:18:58.627Z,94995.75
2022-10-09T08:21:29.153Z,94992.72
2022-10-09T08:23:59.022Z,94991.69
2022-10-09T08:26:30.163Z,94988.34
2022-10-09T08:29:00.921Z,94982.78
2022-10-09T08:31:30.160Z,95001.47
2022-10-09T08:33:59.524Z,94995.44
2022-10-09T08:36:29.805Z,95014.09
2022-10-09T08:38:57.815Z,95006.03
2022-10-09T08:41:39.593Z,95006.28
2022-10-09T08:44:15.786Z,95010.72
2022-10-09T08:46:58.246Z,94999.00
2022-10-09T08:49:31.218Z,95019.41
2022-10-09T08:52:13.738Z,95017.97
2022-10-09T08:54:41.843Z,94993.13
2022-10-09T08:57:14.562Z,95003.25
2022-10-09T08:59:44.005Z,95007.09
2022-10-09T09:02:28.982Z,94997.00
2022-10-09T09:05:10.126Z,95004.50
2022-10-09T09:07:48.226Z,95009.16
2022-10-09T09:10:21.313Z,95005.69
2022-10-09T09:12:54.597Z,95001.22
2022-10-09T09:15:36.252Z,95011.94
2022-10-09T09:18:19.082Z,95010.28
2022-10-09T09:20:53.634Z,95004.84
2022-10-09T09:23:30.071Z,95016.94
2022-10-09T09:25:59.644Z,95012.31
2022-10-09T09:28:30.772Z,95019.97
2022-10-09T09:31:04.243Z,95021.53
2022-10-09T09:33:44.456Z,95019.69
2022-10-09T09:36:22.712Z,95017.53
2022-10-09T09:41:42.419Z,95013.50
2022-10-09T09:44:12.140Z,95012.91
2022-10-09T09:46:41.179Z,95019.44
2022-10-09T09:49:17.881Z,95018.22
2022-10-09T09:51:46.678Z,95034.66
2022-10-09T09:54:22.575Z,95024.38
2022-10-09T09:57:14.030Z,95017.81
2022-10-09T09:59:43.097Z,95023.22
2022-10-09T10:02:15.547Z,95020.03
2022-10-09T10:04:56.590Z,95026.69
2022-10-09T10:07:32.281Z,95018.88
2022-10-09T10:10:06.362Z,95009.63
2022-10-09T10:12:34.691Z,95008.63
2022-10-09T10:15:03.014Z,95018.47
2022-10-09T10:17:39.010Z,95012.25
2022-10-09T10:20:07.821Z,95011.16
2022-10-09T10:22:36.951Z,95014.66
2022-10-09T10:25:09.689Z,95019.00
2022-10-09T10:27:42.957Z,95011.84
2022-10-09T10:30:15.270Z,95009.72
2022-10-09T10:32:51.151Z,95008.25
2022-10-09T10:35:24.935Z,95005.84
2022-10-09T10:38:00.393Z,95006.75
2022-10-09T10:40:34.044Z,95001.69
2022-10-09T10:43:15.720Z,94997.09
2022-10-09T10:45:54.014Z,94994.25
2022-10-09T10:48:27.027Z,94988.31
2022-10-09T10:51:03.942Z,94991.56
2022-10-09T10:53:42.537Z,94990.75
2022-10-09T10:56:20.823Z,94983.31
2022-10-09T10:58:57.331Z,94977.84
2022-10-09T11:01:38.290Z,94966.59
2022-10-09T11:04:28.646Z,94965.06
2022-10-09T11:07:07.538Z,94970.44
2022-10-09T11:09:45.286Z,94974.34
2022-10-09T11:12:43.285Z,94968.94
2022-10-09T11:15:19.360Z,94952.69
2022-10-09T11:17:56.583Z,94963.88
2022-10-09T11:20:45.542Z,94952.09
2022-10-09T11:23:24.175Z,94945.97
2022-10-09T11:25:59.219Z,94950.19
2022-10-09T11:28:34.289Z,94951.00
2022-10-09T11:31:09.647Z,94937.81
2022-10-09T11:33:43.829Z,94927.47
2022-10-09T11:36:17.818Z,94936.13
2022-10-09T11:38:50.134Z,94935.50
2022-10-09T11:41:18.233Z,94931.31
2022-10-09T11:44:01.715Z,94930.84
2022-10-09T11:46:42.044Z,94927.09
2022-10-09T11:49:20.981Z,94923.63
2022-10-09T11:51:58.039Z,94923.38
2022-10-09T11:54:27.526Z,94921.53
2022-10-09T11:56:58.465Z,94915.34
2022-10-09T11:59:31.493Z,94911.13
2022-10-09T12:02:01.275Z,94914.03
2022-10-09T12:04:53.430Z,94909.25
2022-10-09T12:07:33.276Z,94898.31
2022-10-09T12:10:06.277Z,94904.66
2022-10-09T12:12:37.777Z,94915.88
2022-10-09T12:15:26.469Z,94905.47
2022-10-09T12:17:54.695Z,94913.25
2022-10-09T12:20:26.298Z,94904.72
2022-10-09T12:23:21.774Z,94898.25
2022-10-09T12:25:46.938Z,94892.34
2022-10-09T12:28:28.001Z,94900.63
2022-10-09T12:30:58.915Z,94905.88
2022-10-09T12:33:31.605Z,94903.25
2022-10-09T12:36:04.272Z,94896.84
2022-10-09T12:38:33.628Z,94895.06
2022-10-09T12:41:04.329Z,94897.75
2022-10-09T12:43:33.842Z,94896.63
2022-10-09T12:46:03.501Z,94893.50
2022-10-09T12:48:38.092Z,94892.69
2022-10-09T12:51:16.515Z,94900.59
2022-10-09T12:53:48.777Z,94893.75
2022-10-09T12:56:23.957Z,94906.34
2022-10-09T12:58:55.801Z,94907.41
2022-10-09T13:01:26.476Z,94905.25
2022-10-09T13:03:56.275Z,94900.97
2022-10-09T13:06:27.356Z,94891.66
2022-10-09T13:08:57.949Z,94887.63
2022-10-09T13:11:33.293Z,94905.22
2022-10-09T13:14:01.667Z,94897.78
2022-10-09T13:16:41.126Z,94896.69
2022-10-09T13:19:25.483Z,94896.19
2022-10-09T13:22:22.030Z,94889.25
2022-10-09T13:24:53.633Z,94892.97
2022-10-09T13:27:23.061Z,94890.56
2022-10-09T13:29:50.959Z,94894.06
2022-10-09T13:32:20.918Z,94889.19
2022-10-09T13:34:48.792Z,94893.28
2022-10-09T13:37:20.184Z,94892.22
2022-10-09T13:39:48.297Z,94886.66
2022-10-09T13:42:17.712Z,94891.72
2022-10-09T13:44:45.597Z,94893.53
2022-10-09T13:47:13.509Z,94893.47
2022-10-09T13:49:42.779Z,94891.13
2022-10-09T13:52:11.123Z,94896.78
2022-10-09T13:54:39.170Z,94894.16
2022-10-09T13:57:07.123Z,94894.44
2022-10-09T13:59:35.143Z,94899.50
2022-10-09T14:02:03.504Z,94898.56
2022-10-09T14:04:31.564Z,94890.94
2022-10-09T14:07:00.836Z,94892.59
2022-10-09T14:09:28.903Z,94891.78
2022-10-09T14:11:58.007Z,94895.56
2022-10-09T14:14:25.928Z,94902.59
2022-10-09T14:16:53.948Z,94892.47
2022-10-09T14:19:27.082Z,94896.94
2022-10-09T14:21:55.154Z,94897.09
2022-10-09T14:24:25.249Z,94894.13
2022-10-09T14:26:53.443Z,94895.66
2022-10-09T14:29:21.442Z,94905.19
2022-10-09T14:31:51.842Z,94893.66
2022-10-09T14:34:19.802Z,94908.56
2022-10-09T14:36:47.945Z,94909.47
2022-10-09T14:39:16.537Z,94900.00
2022-10-09T14:41:45.936Z,94911.38
2022-10-09T14:44:14.429Z,94904.16
2022-10-09T14:46:42.357Z,94895.94
2022-10-09T14:49:11.625Z,94905.53
2022-10-09T14:51:41.308Z,94913.84
2022-10-09T14:54:10.218Z,94912.16
2022-10-09T14:56:38.237Z,94911.28
2022-10-09T14:59:07.768Z,94906.81
2022-10-09T15:01:36.492Z,94915.69
2022-10-09T15:04:05.257Z,94914.91
2022-10-09T15:06:34.009Z,94911.34
2022-10-09T15:09:05.714Z,94918.03
2022-10-09T15:11:35.275Z,94917.81
2022-10-09T15:14:03.940Z,94911.59
2022-10-09T15:16:33.656Z,94926.97
2022-10-09T15:19:01.824Z,94918.91
2022-10-09T15:21:31.986Z,94926.59
2022-10-09T15:24:02.206Z,94925.13
2022-10-09T15:26:32.872Z,94932.50
2022-10-09T15:29:03.687Z,94917.47
2022-10-09T15:31:34.466Z,94930.00
2022-10-09T15:34:02.536Z,94936.53
2022-10-09T15:36:32.562Z,94941.66
2022-10-09T15:39:03.278Z,94936.09
2022-10-09T15:41:33.133Z,94938.69
2022-10-09T15:44:02.986Z,94949.44
2022-10-09T15:46:31.448Z,94947.22
2022-10-09T15:49:00.831Z,94950.22
2022-10-09T15:51:33.238Z,94956.81
2022-10-09T15:54:02.227Z,94956.06
2022-10-09T15:56:35.968Z,94954.91
2022-10-09T15:59:06.784Z,94961.94
2022-10-09T16:01:38.319Z,94970.94
2022-10-09T16:04:07.658Z,94972.97
2022-10-09T16:06:35.552Z,94978.66
2022-10-09T16:09:04.638Z,94966.34
2022-10-09T16:11:32.641Z,94972.22
2022-10-09T16:14:02.334Z,94972.44
2022-10-09T16:16:36.065Z,94977.38
2022-10-09T16:19:05.209Z,94985.94
2022-10-09T16:21:34.533Z,94990.03
2022-10-09T16:24:02.697Z,94991.13
2022-10-09T16:26:31.043Z,94991.44
2022-10-09T16:29:00.941Z,94995.53
2022-10-09T16:31:31.400Z,94999.69
2022-10-09T16:34:00.040Z,94997.19
2022-10-09T16:36:28.779Z,95004.06
2022-10-09T16:39:01.494Z,94994.84
2022-10-09T16:41:29.981Z,94995.28
2022-10-09T16:44:21.970Z,95014.03
2022-10-09T16:46:49.952Z,95009.19
2022-10-09T16:49:21.410Z,95010.25
2022-10-09T16:51:52.367Z,95022.19
2022-10-09T16:54:22.257Z,95031.50
2022-10-09T16:56:50.435Z,95027.44
2022-10-09T16:59:18.781Z,95029.72
2022-10-09T17:01:47.765Z,95024.63
2022-10-09T17:04:15.800Z,95035.56
2022-10-09T17:06:46.862Z,95037.22
2022-10-09T17:09:15.524Z,95042.66
2022-10-09T17:11:45.980Z,95043.47
2022-10-09T17:14:14.784Z,95043.06
2022-10-09T17:16:44.250Z,95033.19
2022-10-09T17:19:12.194Z,95044.91
2022-10-09T17:21:40.163Z,95045.91
2022-10-09T17:24:08.703Z,95046.50
2022-10-09T17:26:37.017Z,95050.56
2022-10-09T17:29:07.432Z,95052.38
2022-10-09T17:31:35.920Z,95045.25
2022-10-09T17:34:05.398Z,95055.75
2022-10-09T17:36:36.348Z,95061.63
2022-10-09T17:39:06.290Z,95052.50
2022-10-09T17:41:34.283Z,95054.72
2022-10-09T17:44:02.333Z,95060.59
2022-10-09T17:46:32.447Z,95062.59
2022-10-09T17:49:01.074Z,95053.09
2022-10-09T17:51:31.220Z,95063.22
2022-10-09T17:54:03.369Z,95063.00
2022-10-09T17:56:34.074Z,95056.13
2022-10-09T17:59:03.180Z,95069.69
2022-10-09T18:01:32.827Z,95068.25
2022-10-09T18:04:01.295Z,95072.69
2022-10-09T18:06:32.730Z,95075.72
2022-10-09T18:09:00.740Z,95070.41
2022-10-09T18:11:30.185Z,95071.81
2022-10-09T18:13:58.901Z,95073.44
2022-10-09T18:16:35.766Z,95054.81
2022-10-09T18:19:07.864Z,95069.97
2022-10-09T18:21:36.569Z,95068.56
2022-10-09T18:24:04.899Z,95069.56
2022-10-09T18:26:32.806Z,95073.41
2022-10-09T18:29:02.047Z,95074.44
2022-10-09T18:31:31.152Z,95070.63
2022-10-09T18:33:59.750Z,95076.22
2022-10-09T18:36:33.523Z,95064.91
2022-10-09T18:39:04.137Z,95084.16
2022-10-09T18:41:32.632Z,95079.47
2022-10-09T18:44:03.062Z,95083.94
2022-10-09T18:46:37.174Z,95085.72
2022-10-09T18:49:09.307Z,95095.22
2022-10-09T18:51:40.737Z,95094.44
2022-10-09T18:54:10.721Z,95085.72
2022-10-09T18:56:41.720Z,95092.41
2022-10-09T18:59:13.201Z,95092.38
2022-10-09T19:01:41.547Z,95101.63
2022-10-09T19:04:10.060Z,95105.84
2022-10-09T19:06:39.715Z,95101.63
2022-10-09T19:09:09.330Z,95105.44
2022-10-09T19:11:37.272Z,95111.31
2022-10-09T19:14:05.303Z,95110.06
2022-10-09T19:16:36.045Z,95100.66
2022-10-09T19:19:04.298Z,95096.44
2022-10-09T19:21:32.648Z,95116.69
2022-10-09T19:24:04.547Z,95116.44
2022-10-09T19:26:33.171Z,95113.59
2022-10-09T19:29:01.190Z,95122.47
2022-10-09T19:31:29.560Z,95123.25
2022-10-09T19:33:57.767Z,95126.22
2022-10-09T19:36:26.714Z,95125.81
2022-10-09T19:38:54.833Z,95121.97
2022-10-09T19:41:24.090Z,95110.19
2022-10-09T19:43:52.096Z,95124.97
2022-10-09T19:46:22.678Z,95126.91
2022-10-09T19:48:50.640Z,95131.91
2022-10-09T19:51:20.327Z,95115.38
2022-10-09T19:53:49.983Z,95117.00
2022-10-09T19:56:20.548Z,95115.19
2022-10-09T19:58:50.600Z,95118.19
2022-10-09T20:01:21.072Z,95120.56
2022-10-09T20:03:50.096Z,95115.09
2022-10-09T20:06:17.977Z,95117.91
2022-10-09T20:08:46.292Z,95125.25
2022-10-09T20:11:14.211Z,95132.28
2022-10-09T20:13:43.178Z,95131.03
2022-10-09T20:16:15.041Z,95130.31
2022-10-09T20:18:43.693Z,95134.94
2022-10-09T20:21:13.331Z,95133.69
2022-10-09T20:23:41.371Z,95142.22
2022-10-09T20:26:12.199Z,95138.22
2022-10-09T20:28:40.361Z,95139.09
2022-10-09T20:31:11.369Z,95127.28
2022-10-09T20:33:40.838Z,95127.81
2022-10-09T20:36:09.681Z,95121.66
2022-10-09T20:38:37.602Z,95119.69
2022-10-09T20:41:07.720Z,95135.63
2022-10-09T20:43:35.909Z,95127.94
2022-10-09T20:46:07.205Z,95115.63
2022-10-09T20:48:35.280Z,95129.03
2022-10-09T20:51:05.003Z,95126.56
2022-10-09T20:53:32.966Z,95129.66
2022-10-09T20:56:01.478Z,95137.31
2022-10-09T20:58:29.682Z,95129.03
2022-10-09T21:00:57.720Z,95122.50
2022-10-09T21:03:25.680Z,95123.72
2022-10-09T21:05:54.070Z,95119.38
2022-10-09T21:08:23.703Z,95116.81
2022-10-09T21:10:51.743Z,95116.53
2022-10-09T21:13:19.648Z,95116.44
2022-10-09T21:15:49.977Z,95114.84
2022-10-09T21:18:20.422Z,95110.25
2022-10-09T21:20:49.425Z,95110.66
2022-10-09T21:23:19.723Z,95107.22
2022-10-09T21:25:50.624Z,95112.78
2022-10-09T21:28:18.857Z,95110.41
2022-10-09T21:30:46.848Z,95105.97
2022-10-09T21:33:15.352Z,95100.88
2022-10-09T21:35:44.939Z,95113.56
2022-10-09T21:38:14.634Z,95115.25
2022-10-09T21:40:42.672Z,95104.28
2022-10-09T21:43:12.277Z,95100.66
2022-10-09T21:45:41.313Z,95105.66
2022-10-09T21:48:15.558Z,95110.22
2022-10-09T21:50:43.963Z,95102.31
2022-10-09T21:53:12.166Z,95104.38
2022-10-09T21:55:40.731Z,95106.72
2022-10-09T21:58:08.891Z,95104.72
2022-10-09T22:00:57.680Z,95098.63
2022-10-09T22:03:26.527Z,95098.97
2022-10-09T22:05:55.060Z,95094.47
2022-10-09T22:08:24.016Z,95096.22
2022-10-09T22:10:52.151Z,95090.75
2022-10-09T22:13:21.714Z,95094.69
2022-10-09T22:15:51.322Z,95090.63
2022-10-09T22:18:21.264Z,95081.09
2022-10-09T22:20:50.902Z,95088.59
2022-10-09T22:23:19.966Z,95085.72
2022-10-09T22:25:57.111Z,95088.94
2022-10-09T22:28:25.726Z,95086.59
2022-10-09T22:31:02.994Z,95094.69
2022-10-09T22:33:32.695Z,95092.72
2022-10-09T22:36:05.787Z,95099.75
2022-10-09T22:38:34.299Z,95093.81
2022-10-09T22:41:10.250Z,95102.66
2022-10-09T22:43:39.209Z,95108.53
2022-10-09T22:46:09.376Z,95108.41
2022-10-09T22:48:38.793Z,95113.19
2022-10-09T22:51:08.787Z,95130.69
2022-10-09T22:53:38.159Z,95123.50
2022-10-09T22:56:07.188Z,95131.22
2022-10-09T22:58:35.845Z,95131.13
2022-10-09T23:01:06.289Z,95131.31
2022-10-09T23:03:34.344Z,95132.69
2022-10-09T23:06:12.134Z,95127.47
2022-10-09T23:08:42.170Z,95132.03
2022-10-09T23:11:10.486Z,95134.38
2022-10-09T23:13:39.132Z,95130.78
2022-10-09T23:16:10.009Z,95135.94
2022-10-09T23:18:38.968Z,95134.28
2022-10-09T23:21:08.717Z,95137.38
2022-10-09T23:23:38.056Z,95130.06
2022-10-09T23:26:06.707Z,95141.94
2022-10-09T23:28:35.074Z,95144.28
2022-10-09T23:31:03.805Z,95142.09
2022-10-09T23:33:31.932Z,95130.69
2022-10-09T23:36:00.204Z,95126.34
2022-10-09T23:38:28.160Z,95137.13
2022-10-09T23:40:58.395Z,95134.16
2022-10-09T23:43:26.609Z,95127.28
2022-10-09T23:45:56.961Z,95133.31
2022-10-09T23:48:25.179Z,95130.50
2022-10-09T23:50:53.835Z,95132.84
2022-10-09T23:53:22.988Z,95143.97
2022-10-09T23:55:51.033Z,95142.59
2022-10-09T23:58:21.131Z,95137.59
